sensor_id;sensor_type;location;lat;lon;timestamp;P1;durP1;ratioP1;P2;durP2;ratioP2
80199;SDS011;69520;44.900;-0.764;2024-03-22T14:47:43;9.13;;;2.63;;
80199;SDS011;69520;44.900;-0.764;2024-03-22T14:50:10;7.13;;;2.97;;
80199;SDS011;69520;44.900;-0.764;2024-03-22T14:52:37;8.52;;;2.75;;
80199;SDS011;69520;44.900;-0.764;2024-03-22T14:55:04;7.68;;;2.65;;
80199;SDS011;69520;44.900;-0.764;2024-03-22T14:57:30;8.57;;;2.70;;
80199;SDS011;69520;44.900;-0.764;2024-03-22T14:59:56;11.23;;;3.00;;
80199;SDS011;69520;44.900;-0.764;2024-03-22T15:02:22;8.37;;;2.47;;
80199;SDS011;69520;44.900;-0.764;2024-03-22T15:04:48;8.95;;;3.10;;
80199;SDS011;69520;44.900;-0.764;2024-03-22T15:07:14;9.60;;;2.80;;
80199;SDS011;69520;44.900;-0.764;2024-03-22T15:09:40;9.73;;;3.08;;
80199;SDS011;69520;44.900;-0.764;2024-03-22T15:12:07;8.57;;;2.97;;
80199;SDS011;69520;44.900;-0.764;2024-03-22T15:14:34;8.90;;;2.63;;
80199;SDS011;69520;44.900;-0.764;2024-03-22T15:17:00;8.32;;;2.70;;
80199;SDS011;69520;44.900;-0.764;2024-03-22T15:19:26;8.48;;;2.88;;
80199;SDS011;69520;44.900;-0.764;2024-03-22T15:21:52;8.32;;;2.53;;
80199;SDS011;69520;44.900;-0.764;2024-03-22T15:24:18;8.55;;;3.17;;
80199;SDS011;69520;44.900;-0.764;2024-03-22T15:26:44;7.00;;;2.40;;
80199;SDS011;69520;44.900;-0.764;2024-03-22T15:29:10;7.60;;;2.30;;
80199;SDS011;69520;44.900;-0.764;2024-03-22T15:31:36;6.72;;;2.55;;
80199;SDS011;69520;44.900;-0.764;2024-03-22T15:34:02;9.05;;;2.45;;
80199;SDS011;69520;44.900;-0.764;2024-03-22T15:36:30;6.72;;;2.47;;
80199;SDS011;69520;44.900;-0.764;2024-03-22T15:38:56;7.27;;;2.40;;
80199;SDS011;69520;44.900;-0.764;2024-03-22T15:41:22;7.13;;;2.65;;
80199;SDS011;69520;44.900;-0.764;2024-03-22T15:43:48;7.32;;;2.95;;
80199;SDS011;69520;44.900;-0.764;2024-03-22T15:46:14;7.97;;;2.50;;
80199;SDS011;69520;44.900;-0.764;2024-03-22T15:48:41;8.65;;;2.50;;
80199;SDS011;69520;44.900;-0.764;2024-03-22T15:51:07;8.63;;;2.80;;
80199;SDS011;69520;44.900;-0.764;2024-03-22T15:53:33;13.45;;;2.60;;
80199;SDS011;69520;44.900;-0.764;2024-03-22T15:55:59;7.05;;;2.60;;
80199;SDS011;69520;44.900;-0.764;2024-03-22T15:58:25;6.72;;;2.45;;
80199;SDS011;69520;44.900;-0.764;2024-03-22T16:00:51;7.43;;;2.45;;
80199;SDS011;69520;44.900;-0.764;2024-03-22T16:03:17;8.20;;;2.40;;
80199;SDS011;69520;44.900;-0.764;2024-03-22T16:05:50;9.07;;;2.55;;
80199;SDS011;69520;44.900;-0.764;2024-03-22T16:08:17;6.55;;;2.42;;
80199;SDS011;69520;44.900;-0.764;2024-03-22T16:10:44;7.35;;;2.50;;
80199;SDS011;69520;44.900;-0.764;2024-03-22T16:13:10;7.80;;;2.58;;
80199;SDS011;69520;44.900;-0.764;2024-03-22T16:15:36;8.23;;;3.00;;
80199;SDS011;69520;44.900;-0.764;2024-03-22T16:18:02;7.47;;;2.70;;
80199;SDS011;69520;44.900;-0.764;2024-03-22T16:20:28;7.72;;;2.58;;
80199;SDS011;69520;44.900;-0.764;2024-03-22T16:22:54;10.15;;;2.70;;
80199;SDS011;69520;44.900;-0.764;2024-03-22T16:25:20;10.23;;;3.00;;
80199;SDS011;69520;44.900;-0.764;2024-03-22T16:27:46;7.00;;;2.50;;
80199;SDS011;69520;44.900;-0.764;2024-03-22T16:30:13;8.32;;;2.58;;
80199;SDS011;69520;44.900;-0.764;2024-03-22T16:32:39;9.02;;;3.10;;
80199;SDS011;69520;44.900;-0.764;2024-03-22T16:35:05;6.22;;;2.50;;
80199;SDS011;69520;44.900;-0.764;2024-03-22T16:37:31;7.28;;;2.70;;
80199;SDS011;69520;44.900;-0.764;2024-03-22T16:39:57;7.97;;;2.77;;
80199;SDS011;69520;44.900;-0.764;2024-03-22T16:42:23;8.73;;;3.35;;
80199;SDS011;69520;44.900;-0.764;2024-03-22T16:44:49;6.93;;;2.47;;
80199;SDS011;69520;44.900;-0.764;2024-03-22T16:47:15;10.18;;;2.92;;
80199;SDS011;69520;44.900;-0.764;2024-03-22T16:49:41;8.07;;;2.80;;
80199;SDS011;69520;44.900;-0.764;2024-03-22T16:52:07;9.77;;;3.00;;
80199;SDS011;69520;44.900;-0.764;2024-03-22T16:54:33;6.18;;;2.72;;
80199;SDS011;69520;44.900;-0.764;2024-03-22T16:56:59;7.50;;;2.50;;
80199;SDS011;69520;44.900;-0.764;2024-03-22T16:59:25;7.78;;;2.50;;
80199;SDS011;69520;44.900;-0.764;2024-03-22T17:01:51;5.53;;;2.40;;
80199;SDS011;69520;44.900;-0.764;2024-03-22T17:04:17;6.83;;;2.50;;
80199;SDS011;69520;44.900;-0.764;2024-03-22T17:06:44;6.78;;;2.35;;
80199;SDS011;69520;44.900;-0.764;2024-03-22T17:09:10;9.00;;;2.67;;
80199;SDS011;69520;44.900;-0.764;2024-03-22T17:11:36;7.38;;;2.78;;
80199;SDS011;69520;44.900;-0.764;2024-03-22T17:14:02;6.63;;;2.38;;
80199;SDS011;69520;44.900;-0.764;2024-03-22T17:16:28;7.90;;;2.90;;
80199;SDS011;69520;44.900;-0.764;2024-03-22T17:18:54;6.40;;;2.40;;
80199;SDS011;69520;44.900;-0.764;2024-03-22T17:21:20;6.72;;;2.55;;
80199;SDS011;69520;44.900;-0.764;2024-03-22T17:23:50;6.57;;;2.53;;
80199;SDS011;69520;44.900;-0.764;2024-03-22T17:26:16;7.35;;;2.70;;
80199;SDS011;69520;44.900;-0.764;2024-03-22T17:28:43;7.97;;;2.90;;
80199;SDS011;69520;44.900;-0.764;2024-03-22T17:31:10;9.60;;;2.55;;
80199;SDS011;69520;44.900;-0.764;2024-03-22T17:33:36;7.10;;;2.53;;
80199;SDS011;69520;44.900;-0.764;2024-03-22T17:36:02;7.82;;;2.50;;
80199;SDS011;69520;44.900;-0.764;2024-03-22T17:38:28;7.07;;;2.70;;
80199;SDS011;69520;44.900;-0.764;2024-03-22T17:40:54;6.07;;;2.47;;
80199;SDS011;69520;44.900;-0.764;2024-03-22T17:43:20;6.88;;;2.75;;
80199;SDS011;69520;44.900;-0.764;2024-03-22T17:45:59;7.35;;;2.78;;
80199;SDS011;69520;44.900;-0.764;2024-03-22T17:48:25;6.72;;;2.60;;
80199;SDS011;69520;44.900;-0.764;2024-03-22T17:50:51;6.43;;;2.53;;
80199;SDS011;69520;44.900;-0.764;2024-03-22T17:53:18;6.60;;;2.67;;
80199;SDS011;69520;44.900;-0.764;2024-03-22T17:55:44;6.68;;;2.90;;
80199;SDS011;69520;44.900;-0.764;2024-03-22T17:58:10;7.40;;;3.10;;
80199;SDS011;69520;44.900;-0.764;2024-03-22T18:00:37;8.88;;;2.65;;
80199;SDS011;69520;44.900;-0.764;2024-03-22T18:03:03;7.20;;;2.38;;
80199;SDS011;69520;44.900;-0.764;2024-03-22T18:05:29;9.73;;;3.00;;
80199;SDS011;69520;44.900;-0.764;2024-03-22T18:07:56;8.52;;;2.88;;
80199;SDS011;69520;44.900;-0.764;2024-03-22T18:10:24;7.78;;;2.58;;
80199;SDS011;69520;44.900;-0.764;2024-03-22T18:12:50;7.57;;;2.67;;
80199;SDS011;69520;44.900;-0.764;2024-03-22T18:15:16;8.68;;;4.07;;
80199;SDS011;69520;44.900;-0.764;2024-03-22T18:17:42;8.13;;;3.13;;
80199;SDS011;69520;44.900;-0.764;2024-03-22T18:20:08;7.47;;;3.05;;
80199;SDS011;69520;44.900;-0.764;2024-03-22T18:22:34;9.05;;;3.13;;
80199;SDS011;69520;44.900;-0.764;2024-03-22T18:25:00;7.80;;;2.92;;
80199;SDS011;69520;44.900;-0.764;2024-03-22T18:27:26;7.07;;;2.60;;
80199;SDS011;69520;44.900;-0.764;2024-03-22T18:29:52;8.30;;;3.00;;
80199;SDS011;69520;44.900;-0.764;2024-03-22T18:32:18;10.48;;;2.70;;
80199;SDS011;69520;44.900;-0.764;2024-03-22T18:34:44;8.45;;;2.70;;
80199;SDS011;69520;44.900;-0.764;2024-03-22T18:37:13;6.30;;;2.75;;
80199;SDS011;69520;44.900;-0.764;2024-03-22T18:39:39;7.75;;;3.20;;
80199;SDS011;69520;44.900;-0.764;2024-03-22T18:42:05;8.37;;;2.80;;
80199;SDS011;69520;44.900;-0.764;2024-03-22T18:44:31;7.65;;;2.85;;
80199;SDS011;69520;44.900;-0.764;2024-03-22T18:46:59;8.15;;;3.13;;
80199;SDS011;69520;44.900;-0.764;2024-03-22T18:49:25;7.15;;;3.00;;
80199;SDS011;69520;44.900;-0.764;2024-03-22T18:51:51;7.60;;;3.20;;
80199;SDS011;69520;44.900;-0.764;2024-03-22T18:54:17;9.17;;;4.10;;
80199;SDS011;69520;44.900;-0.764;2024-03-22T18:56:43;7.60;;;2.80;;
80199;SDS011;69520;44.900;-0.764;2024-03-22T18:59:10;9.85;;;3.47;;
80199;SDS011;69520;44.900;-0.764;2024-03-22T19:01:36;7.88;;;3.50;;
80199;SDS011;69520;44.900;-0.764;2024-03-22T19:04:02;9.15;;;4.00;;
80199;SDS011;69520;44.900;-0.764;2024-03-22T19:06:28;10.73;;;4.33;;
80199;SDS011;69520;44.900;-0.764;2024-03-22T19:08:54;9.63;;;4.22;;
80199;SDS011;69520;44.900;-0.764;2024-03-22T19:11:20;10.57;;;4.10;;
80199;SDS011;69520;44.900;-0.764;2024-03-22T19:13:47;10.23;;;4.75;;
80199;SDS011;69520;44.900;-0.764;2024-03-22T19:16:13;9.77;;;4.55;;
80199;SDS011;69520;44.900;-0.764;2024-03-22T19:18:39;11.13;;;5.33;;
80199;SDS011;69520;44.900;-0.764;2024-03-22T19:21:05;11.32;;;4.93;;
80199;SDS011;69520;44.900;-0.764;2024-03-22T19:23:32;11.95;;;4.90;;
80199;SDS011;69520;44.900;-0.764;2024-03-22T19:25:58;11.82;;;4.68;;
80199;SDS011;69520;44.900;-0.764;2024-03-22T19:28:25;10.15;;;4.10;;
80199;SDS011;69520;44.900;-0.764;2024-03-22T19:30:51;8.03;;;3.53;;
80199;SDS011;69520;44.900;-0.764;2024-03-22T19:33:18;9.75;;;3.90;;
80199;SDS011;69520;44.900;-0.764;2024-03-22T19:35:44;9.90;;;4.20;;
80199;SDS011;69520;44.900;-0.764;2024-03-22T19:38:10;9.65;;;4.30;;
80199;SDS011;69520;44.900;-0.764;2024-03-22T19:40:37;8.88;;;3.67;;
80199;SDS011;69520;44.900;-0.764;2024-03-22T19:43:03;9.23;;;3.80;;
80199;SDS011;69520;44.900;-0.764;2024-03-22T19:45:30;9.80;;;3.53;;
80199;SDS011;69520;44.900;-0.764;2024-03-22T19:47:56;8.27;;;3.22;;
80199;SDS011;69520;44.900;-0.764;2024-03-22T19:50:22;9.43;;;3.22;;
80199;SDS011;69520;44.900;-0.764;2024-03-22T19:52:48;11.07;;;3.72;;
80199;SDS011;69520;44.900;-0.764;2024-03-22T19:55:14;9.47;;;3.20;;
80199;SDS011;69520;44.900;-0.764;2024-03-22T19:57:40;8.60;;;3.25;;
80199;SDS011;69520;44.900;-0.764;2024-03-22T20:00:06;11.00;;;3.67;;
80199;SDS011;69520;44.900;-0.764;2024-03-22T20:02:33;9.48;;;3.50;;
80199;SDS011;69520;44.900;-0.764;2024-03-22T20:04:59;9.07;;;3.33;;
80199;SDS011;69520;44.900;-0.764;2024-03-22T20:07:25;10.40;;;3.20;;
80199;SDS011;69520;44.900;-0.764;2024-03-22T20:09:51;8.18;;;2.97;;
80199;SDS011;69520;44.900;-0.764;2024-03-22T20:12:18;8.55;;;3.35;;
80199;SDS011;69520;44.900;-0.764;2024-03-22T20:14:44;9.82;;;3.20;;
80199;SDS011;69520;44.900;-0.764;2024-03-22T20:17:10;12.55;;;3.53;;
80199;SDS011;69520;44.900;-0.764;2024-03-22T20:19:36;9.17;;;3.20;;
80199;SDS011;69520;44.900;-0.764;2024-03-22T20:22:02;11.65;;;3.45;;
80199;SDS011;69520;44.900;-0.764;2024-03-22T20:24:29;8.50;;;3.65;;
80199;SDS011;69520;44.900;-0.764;2024-03-22T20:26:55;9.15;;;3.45;;
80199;SDS011;69520;44.900;-0.764;2024-03-22T20:29:21;9.52;;;2.90;;
80199;SDS011;69520;44.900;-0.764;2024-03-22T20:31:47;10.80;;;2.70;;
80199;SDS011;69520;44.900;-0.764;2024-03-22T20:34:13;8.65;;;2.42;;
